Time;durP1;ratioP1;P1;durP2;ratioP2;P2;SDS_P1;SDS_P2;PMS_P1;PMS_P2;Temp;Humidity;BMP_temperature;BMP_pressure;BME280_temperature;BME280_humidity;BME280_pressure;Samples;Min_cycle;Max_cycle;Signal;HPM_P1;HPM_P2
2022/10/24 00:00:32;;;;;;;8.88;2.78;;;;;;;;;;5032229;28;20269;-72
2022/10/24 00:02:58;;;;;;;5.97;2.63;;;;;;;;;;5028385;28;20190;-73
2022/10/24 00:05:24;;;;;;;8.77;3.10;;;;;;;;;;5030612;28;20528;-73
2022/10/24 00:07:49;;;;;;;5.32;2.50;;;;;;;;;;5041370;28;20235;-73
2022/10/24 00:10:15;;;;;;;7.18;2.58;;;;;;;;;;5030927;28;20667;-73
2022/10/24 00:12:40;;;;;;;8.40;2.60;;;;;;;;;;5027537;28;20190;-73
2022/10/24 00:15:06;;;;;;;8.73;3.58;;;;;;;;;;5028860;28;20683;-73
2022/10/24 00:17:31;;;;;;;6.65;2.53;;;;;;;;;;5025024;28;20202;-73
2022/10/24 00:19:57;;;;;;;4.90;2.78;;;;;;;;;;5029900;28;20183;-72
2022/10/24 00:22:23;;;;;;;6.85;3.55;;;;;;;;;;5032008;28;20182;-72
2022/10/24 00:24:48;;;;;;;9.02;2.83;;;;;;;;;;5047415;28;20174;-72
2022/10/24 00:27:13;;;;;;;5.97;2.75;;;;;;;;;;5027318;28;20215;-73
2022/10/24 00:29:39;;;;;;;4.00;2.05;;;;;;;;;;5031922;28;20178;-73
2022/10/24 00:32:04;;;;;;;4.18;2.08;;;;;;;;;;5028218;28;20628;-73
2022/10/24 00:34:29;;;;;;;4.68;2.60;;;;;;;;;;5028421;28;20237;-73
2022/10/24 00:36:54;;;;;;;6.70;2.63;;;;;;;;;;5037266;28;20214;-73
2022/10/24 00:39:20;;;;;;;5.60;2.75;;;;;;;;;;5025834;28;20637;-73
2022/10/24 00:41:45;;;;;;;6.40;2.50;;;;;;;;;;5025159;28;20170;-73
2022/10/24 00:44:14;;;;;;;6.60;2.03;;;;;;;;;;5047210;28;20225;-72
2022/10/24 00:46:40;;;;;;;3.95;2.00;;;;;;;;;;5030420;28;20206;-73
2022/10/24 00:49:11;;;;;;;5.28;2.17;;;;;;;;;;5026192;28;20684;-72
2022/10/24 00:51:36;;;;;;;6.35;2.10;;;;;;;;;;5028543;28;20185;-73
2022/10/24 00:54:03;;;;;;;3.40;1.83;;;;;;;;;;5029185;28;20279;-72
2022/10/24 00:56:31;;;;;;;6.15;2.20;;;;;;;;;;5026183;28;20185;-74
2022/10/24 00:58:56;;;;;;;7.57;3.90;;;;;;;;;;5028152;28;20178;-72
2022/10/24 01:01:23;;;;;;;6.50;2.00;;;;;;;;;;5029905;28;20240;-72
2022/10/24 01:03:48;;;;;;;3.10;1.52;;;;;;;;;;5031428;28;20700;-72
2022/10/24 01:06:13;;;;;;;4.93;1.98;;;;;;;;;;5030955;28;20272;-72
2022/10/24 01:08:51;;;;;;;3.22;1.70;;;;;;;;;;5028530;28;20194;-73
2022/10/24 01:11:22;;;;;;;6.07;1.58;;;;;;;;;;5026381;28;20183;-72
2022/10/24 01:13:50;;;;;;;5.28;1.77;;;;;;;;;;5030966;28;20702;-72
2022/10/24 01:16:36;;;;;;;8.07;1.80;;;;;;;;;;5045392;28;20178;-73
2022/10/24 01:19:21;;;;;;;2.85;1.50;;;;;;;;;;5028530;28;20224;-72
2022/10/24 01:21:56;;;;;;;7.80;3.25;;;;;;;;;;5010069;28;20197;-73
2022/10/24 01:24:41;;;;;;;5.78;1.60;;;;;;;;;;5025288;28;20645;-73
2022/10/24 01:27:27;;;;;;;5.70;2.75;;;;;;;;;;5026934;28;20205;-73
2022/10/24 01:29:58;;;;;;;5.75;1.92;;;;;;;;;;5027080;28;20213;-72
2022/10/24 01:32:35;;;;;;;10.10;2.47;;;;;;;;;;5028768;28;20285;-73
2022/10/24 01:35:12;;;;;;;4.57;1.80;;;;;;;;;;5025268;28;20201;-74
2022/10/24 01:38:00;;;;;;;5.97;1.52;;;;;;;;;;5029054;28;20213;-73
2022/10/24 01:40:27;;;;;;;9.18;1.85;;;;;;;;;;5021918;28;20249;-73
2022/10/24 01:42:54;;;;;;;3.38;1.60;;;;;;;;;;5023706;28;20620;-73
2022/10/24 01:45:22;;;;;;;10.60;2.22;;;;;;;;;;5031256;28;20250;-74
2022/10/24 01:47:50;;;;;;;4.05;1.83;;;;;;;;;;5040737;28;20202;-73
2022/10/24 01:50:17;;;;;;;3.90;1.70;;;;;;;;;;5029297;28;20554;-73
2022/10/24 01:52:44;;;;;;;4.97;1.73;;;;;;;;;;5029009;28;20189;-74
2022/10/24 01:55:09;;;;;;;4.95;1.75;;;;;;;;;;5028642;28;20213;-73
2022/10/24 01:57:35;;;;;;;4.43;1.38;;;;;;;;;;5030130;28;20194;-73
2022/10/24 02:00:01;;;;;;;4.45;1.67;;;;;;;;;;5029981;28;20182;-72
2022/10/24 02:02:28;;;;;;;4.25;2.10;;;;;;;;;;5026860;28;20178;-73
2022/10/24 02:04:53;;;;;;;4.85;1.83;;;;;;;;;;5027886;28;20193;-72
2022/10/24 02:07:20;;;;;;;3.23;1.67;;;;;;;;;;5025050;28;20195;-72
2022/10/24 02:09:46;;;;;;;5.15;1.70;;;;;;;;;;5026428;28;20514;-73
2022/10/24 02:12:13;;;;;;;3.42;1.33;;;;;;;;;;5026715;28;20209;-72
2022/10/24 02:14:47;;;;;;;4.78;1.40;;;;;;;;;;5025977;28;20673;-72
2022/10/24 02:17:13;;;;;;;8.50;1.55;;;;;;;;;;5027089;28;20629;-72
2022/10/24 02:19:38;;;;;;;3.22;1.88;;;;;;;;;;5025108;28;20269;-73
2022/10/24 02:22:10;;;;;;;3.42;2.00;;;;;;;;;;5022331;28;20265;-72
2022/10/24 02:24:41;;;;;;;4.72;1.92;;;;;;;;;;5029548;28;20277;-72
2022/10/24 02:27:13;;;;;;;3.03;1.73;;;;;;;;;;5023064;28;20756;-72
2022/10/24 02:29:51;;;;;;;3.83;1.63;;;;;;;;;;5029659;28;20182;-72
2022/10/24 02:32:20;;;;;;;5.22;1.48;;;;;;;;;;5037780;28;20174;-72
2022/10/24 02:34:46;;;;;;;3.45;1.83;;;;;;;;;;5028040;28;20260;-72
2022/10/24 02:37:12;;;;;;;3.03;1.83;;;;;;;;;;5041856;28;20669;-72
2022/10/24 02:39:39;;;;;;;5.13;2.05;;;;;;;;;;5023821;28;20261;-72
2022/10/24 02:42:05;;;;;;;3.53;1.25;;;;;;;;;;5026493;28;20196;-72
2022/10/24 02:44:31;;;;;;;5.18;1.25;;;;;;;;;;5045099;28;20183;-72
2022/10/24 02:46:58;;;;;;;3.22;1.60;;;;;;;;;;5028571;28;20197;-73
2022/10/24 02:49:23;;;;;;;4.68;1.90;;;;;;;;;;5027791;28;20564;-72
2022/10/24 02:51:49;;;;;;;3.17;1.63;;;;;;;;;;5026742;28;20193;-72
2022/10/24 02:54:14;;;;;;;3.65;1.80;;;;;;;;;;5027314;28;20210;-72
2022/10/24 02:56:42;;;;;;;4.70;1.65;;;;;;;;;;5023659;28;20194;-72
2022/10/24 02:59:07;;;;;;;2.58;1.67;;;;;;;;;;5030270;28;20183;-72
2022/10/24 03:01:32;;;;;;;5.20;1.92;;;;;;;;;;5027255;28;20179;-72
2022/10/24 03:03:57;;;;;;;2.72;1.40;;;;;;;;;;5028771;28;20256;-72
2022/10/24 03:06:23;;;;;;;3.78;1.67;;;;;;;;;;5028870;28;20190;-72
2022/10/24 03:08:48;;;;;;;7.40;1.58;;;;;;;;;;5029809;28;20183;-72
2022/10/24 03:11:14;;;;;;;3.72;1.48;;;;;;;;;;5028796;28;20628;-73
2022/10/24 03:13:39;;;;;;;6.63;1.60;;;;;;;;;;5025527;28;20200;-72
2022/10/24 03:16:04;;;;;;;5.03;1.33;;;;;;;;;;5030827;28;20193;-72
2022/10/24 03:18:30;;;;;;;3.35;1.20;;;;;;;;;;5032357;28;20281;-72
2022/10/24 03:20:55;;;;;;;3.33;1.48;;;;;;;;;;5033154;28;20217;-72
2022/10/24 03:23:20;;;;;;;2.33;1.38;;;;;;;;;;5032490;28;20236;-72
2022/10/24 03:25:46;;;;;;;6.13;1.40;;;;;;;;;;5030868;28;20185;-72
2022/10/24 03:28:11;;;;;;;5.28;1.55;;;;;;;;;;5050648;22;20671;-68
2022/10/24 03:30:36;;;;;;;3.13;1.20;;;;;;;;;;5041626;28;20663;-67
2022/10/24 03:33:01;;;;;;;7.22;1.33;;;;;;;;;;5046326;28;20182;-68
2022/10/24 03:35:26;;;;;;;2.28;1.08;;;;;;;;;;5047566;28;20205;-68
2022/10/24 03:37:52;;;;;;;4.97;1.50;;;;;;;;;;5056853;28;20194;-68
2022/10/24 03:40:17;;;;;;;5.40;1.00;;;;;;;;;;5031982;28;20202;-68
2022/10/24 03:42:42;;;;;;;4.90;1.23;;;;;;;;;;5029702;28;20186;-68
2022/10/24 03:45:07;;;;;;;5.43;1.30;;;;;;;;;;5030851;28;20183;-68
2022/10/24 03:47:33;;;;;;;11.20;1.92;;;;;;;;;;5024989;28;20706;-68
2022/10/24 03:49:58;;;;;;;3.30;1.00;;;;;;;;;;5031292;28;20195;-68
2022/10/24 03:52:23;;;;;;;5.57;1.25;;;;;;;;;;5030062;28;20224;-70
2022/10/24 03:54:48;;;;;;;5.35;1.73;;;;;;;;;;5031309;28;20210;-67
2022/10/24 03:57:13;;;;;;;5.25;0.90;;;;;;;;;;5029456;28;20281;-68
2022/10/24 03:59:39;;;;;;;5.88;1.38;;;;;;;;;;5031125;28;20670;-67
2022/10/24 04:02:04;;;;;;;4.53;1.40;;;;;;;;;;5028594;28;20695;-67
2022/10/24 04:04:29;;;;;;;6.25;1.60;;;;;;;;;;5031160;28;20637;-68
2022/10/24 04:06:55;;;;;;;6.88;1.35;;;;;;;;;;5026692;28;20189;-68
2022/10/24 04:09:20;;;;;;;6.00;1.30;;;;;;;;;;5029736;28;20213;-68
2022/10/24 04:11:46;;;;;;;6.03;1.42;;;;;;;;;;5029655;28;20178;-68
2022/10/24 04:14:11;;;;;;;4.07;1.15;;;;;;;;;;5026063;28;20210;-68
2022/10/24 04:16:37;;;;;;;4.47;0.80;;;;;;;;;;5031448;28;20189;-68
2022/10/24 04:19:02;;;;;;;3.05;0.90;;;;;;;;;;5031123;28;20202;-68
2022/10/24 04:21:27;;;;;;;9.02;2.22;;;;;;;;;;5029861;28;20189;-68
2022/10/24 04:23:52;;;;;;;3.03;1.00;;;;;;;;;;5022991;28;20194;-68
2022/10/24 04:26:17;;;;;;;8.40;1.27;;;;;;;;;;5028447;28;20257;-67
2022/10/24 04:28:45;;;;;;;5.07;2.38;;;;;;;;;;5029508;28;20217;-68
2022/10/24 04:31:10;;;;;;;4.70;1.50;;;;;;;;;;5029478;28;20184;-68
2022/10/24 04:33:36;;;;;;;2.60;1.13;;;;;;;;;;5030520;28;20210;-68
2022/10/24 04:36:01;;;;;;;4.85;0.90;;;;;;;;;;5044991;28;20726;-68
2022/10/24 04:38:26;;;;;;;6.07;1.40;;;;;;;;;;5026979;28;20198;-68
2022/10/24 04:40:52;;;;;;;5.47;1.10;;;;;;;;;;5031505;28;20183;-68
2022/10/24 04:43:18;;;;;;;6.95;1.23;;;;;;;;;;5030200;28;20608;-68
2022/10/24 04:45:43;;;;;;;6.35;1.00;;;;;;;;;;5031223;28;20253;-68
2022/10/24 04:48:08;;;;;;;4.80;1.08;;;;;;;;;;5026671;28;20214;-67
2022/10/24 04:50:34;;;;;;;5.68;1.15;;;;;;;;;;5031036;28;20186;-67
2022/10/24 04:53:00;;;;;;;3.42;0.80;;;;;;;;;;5024233;28;20175;-67
2022/10/24 04:55:25;;;;;;;5.28;0.90;;;;;;;;;;5024383;28;20638;-68
2022/10/24 04:57:51;;;;;;;4.65;1.20;;;;;;;;;;5029476;28;20186;-68
2022/10/24 05:00:16;;;;;;;7.03;1.10;;;;;;;;;;5029030;28;20190;-68
2022/10/24 05:02:41;;;;;;;5.22;0.93;;;;;;;;;;5029383;28;20174;-68
2022/10/24 05:05:06;;;;;;;2.35;0.80;;;;;;;;;;5029169;28;20194;-68
2022/10/24 05:07:32;;;;;;;2.13;0.90;;;;;;;;;;5026647;28;20233;-68
2022/10/24 05:09:57;;;;;;;3.05;1.25;;;;;;;;;;5026617;28;20178;-68
2022/10/24 05:12:22;;;;;;;3.25;0.80;;;;;;;;;;5025819;28;20245;-68
2022/10/24 05:14:47;;;;;;;6.63;2.25;;;;;;;;;;5027910;28;20777;-68
2022/10/24 05:17:13;;;;;;;7.22;0.82;;;;;;;;;;5025515;28;20268;-68
2022/10/24 05:19:38;;;;;;;11.02;1.40;;;;;;;;;;5027302;28;20261;-68
2022/10/24 05:22:03;;;;;;;3.90;1.42;;;;;;;;;;5027771;28;20235;-68
2022/10/24 05:24:29;;;;;;;2.55;1.05;;;;;;;;;;5028622;28;20186;-68
2022/10/24 05:26:54;;;;;;;6.68;1.63;;;;;;;;;;5028418;28;20217;-68
2022/10/24 05:29:19;;;;;;;3.72;1.00;;;;;;;;;;5023442;28;20679;-67
2022/10/24 05:31:44;;;;;;;5.10;0.90;;;;;;;;;;5030006;28;20189;-68
2022/10/24 05:34:09;;;;;;;8.15;1.35;;;;;;;;;;5023743;28;20345;-68
2022/10/24 05:36:35;;;;;;;5.13;1.17;;;;;;;;;;5024178;28;20564;-68
2022/10/24 05:39:00;;;;;;;4.70;1.00;;;;;;;;;;5029497;28;20217;-68
2022/10/24 05:41:25;;;;;;;6.90;0.90;;;;;;;;;;5022018;28;20206;-68
2022/10/24 05:43:50;;;;;;;6.95;1.55;;;;;;;;;;5023702;28;20178;-68
2022/10/24 05:46:15;;;;;;;2.72;0.70;;;;;;;;;;5028925;28;20497;-68
2022/10/24 05:48:41;;;;;;;6.95;1.25;;;;;;;;;;5024004;28;20276;-68
2022/10/24 05:51:06;;;;;;;5.30;1.30;;;;;;;;;;5027409;28;20592;-68
2022/10/24 05:53:31;;;;;;;3.20;1.15;;;;;;;;;;5027616;28;20683;-68
2022/10/24 05:55:56;;;;;;;3.85;1.30;;;;;;;;;;5025118;28;20712;-68
2022/10/24 05:58:21;;;;;;;4.22;1.00;;;;;;;;;;5029649;28;20217;-68
2022/10/24 06:00:47;;;;;;;3.83;0.95;;;;;;;;;;5024329;28;20181;-68
2022/10/24 06:03:13;;;;;;;8.32;1.25;;;;;;;;;;5026842;28;20182;-68
2022/10/24 06:05:38;;;;;;;3.15;0.73;;;;;;;;;;5026900;28;20178;-68
2022/10/24 06:08:03;;;;;;;4.65;0.98;;;;;;;;;;5028421;28;20704;-68
2022/10/24 06:10:28;;;;;;;6.00;1.17;;;;;;;;;;5030538;28;20182;-68
2022/10/24 06:12:54;;;;;;;5.97;1.08;;;;;;;;;;5028869;28;20186;-68
2022/10/24 06:15:19;;;;;;;6.70;1.67;;;;;;;;;;5030076;28;20703;-68
2022/10/24 06:17:44;;;;;;;8.75;1.15;;;;;;;;;;5029422;28;20607;-68
2022/10/24 06:20:10;;;;;;;2.83;0.85;;;;;;;;;;5028665;28;20608;-68
2022/10/24 06:22:35;;;;;;;6.78;1.10;;;;;;;;;;5024248;28;20182;-68
2022/10/24 06:25:00;;;;;;;6.25;1.20;;;;;;;;;;5026973;28;20669;-70
2022/10/24 06:27:26;;;;;;;6.57;1.60;;;;;;;;;;5035129;28;20678;-68
2022/10/24 06:29:51;;;;;;;3.65;1.10;;;;;;;;;;5023190;28;20186;-68
2022/10/24 06:32:16;;;;;;;5.30;1.13;;;;;;;;;;5026014;28;20182;-68
2022/10/24 06:34:41;;;;;;;3.95;1.05;;;;;;;;;;5026396;28;20205;-68
2022/10/24 06:37:06;;;;;;;6.18;1.30;;;;;;;;;;5029699;28;20197;-68
2022/10/24 06:39:32;;;;;;;3.35;1.45;;;;;;;;;;5028562;28;20265;-68
2022/10/24 06:41:57;;;;;;;3.05;1.10;;;;;;;;;;5026557;28;20184;-70
2022/10/24 06:44:22;;;;;;;3.67;0.80;;;;;;;;;;5029322;28;20257;-68
2022/10/24 06:46:47;;;;;;;11.93;1.60;;;;;;;;;;5039245;28;20240;-67
2022/10/24 06:49:13;;;;;;;4.18;1.23;;;;;;;;;;5028386;28;20221;-67
2022/10/24 06:51:39;;;;;;;5.28;0.98;;;;;;;;;;5029920;28;20174;-67
2022/10/24 06:54:04;;;;;;;2.58;0.85;;;;;;;;;;5032876;28;20259;-67
2022/10/24 06:56:29;;;;;;;7.00;1.08;;;;;;;;;;5029139;28;20562;-67
2022/10/24 06:58:55;;;;;;;4.63;1.08;;;;;;;;;;5029614;28;20335;-68
2022/10/24 07:01:21;;;;;;;4.30;1.25;;;;;;;;;;5029882;28;20177;-67
2022/10/24 07:03:46;;;;;;;4.47;1.30;;;;;;;;;;5033924;28;20553;-67
2022/10/24 07:06:16;;;;;;;8.10;1.10;;;;;;;;;;5028841;28;20191;-67
2022/10/24 07:08:42;;;;;;;5.25;0.90;;;;;;;;;;5024836;28;20218;-67
2022/10/24 07:11:07;;;;;;;8.20;1.65;;;;;;;;;;5027769;28;20182;-68
2022/10/24 07:13:32;;;;;;;3.33;1.20;;;;;;;;;;5033088;28;20359;-68
2022/10/24 07:15:58;;;;;;;5.80;1.17;;;;;;;;;;5030491;28;20186;-67
2022/10/24 07:18:23;;;;;;;6.28;1.60;;;;;;;;;;5031845;28;20572;-68
2022/10/24 07:20:48;;;;;;;8.50;1.50;;;;;;;;;;5029566;28;20178;-68
2022/10/24 07:23:14;;;;;;;4.97;1.27;;;;;;;;;;5030844;28;20266;-68
2022/10/24 07:25:39;;;;;;;6.53;1.60;;;;;;;;;;5031526;28;20186;-67
2022/10/24 07:28:05;;;;;;;5.03;1.15;;;;;;;;;;5028931;28;20214;-67
2022/10/24 07:30:30;;;;;;;3.90;1.48;;;;;;;;;;5025148;28;20599;-67
2022/10/24 07:32:55;;;;;;;5.00;1.20;;;;;;;;;;5027935;28;20178;-67
2022/10/24 07:35:22;;;;;;;5.97;1.38;;;;;;;;;;5029210;28;20212;-68
2022/10/24 07:37:47;;;;;;;6.45;1.33;;;;;;;;;;5024981;28;20225;-67
2022/10/24 07:40:12;;;;;;;5.38;1.20;;;;;;;;;;5029858;28;20206;-68
2022/10/24 07:42:38;;;;;;;10.20;2.17;;;;;;;;;;5031033;28;20191;-68
2022/10/24 07:45:04;;;;;;;6.57;1.25;;;;;;;;;;5032567;28;20289;-67
2022/10/24 07:47:29;;;;;;;8.80;1.13;;;;;;;;;;5032135;28;20202;-68
2022/10/24 07:49:55;;;;;;;4.47;1.00;;;;;;;;;;5025822;28;20406;-67
2022/10/24 07:52:20;;;;;;;6.28;1.10;;;;;;;;;;5030600;28;20648;-68
2022/10/24 07:54:45;;;;;;;7.80;0.98;;;;;;;;;;5025166;28;20198;-68
2022/10/24 07:57:10;;;;;;;3.60;0.85;;;;;;;;;;5028468;28;20206;-68
2022/10/24 07:59:36;;;;;;;9.18;0.85;;;;;;;;;;5031007;28;20265;-68
2022/10/24 08:02:01;;;;;;;7.00;1.13;;;;;;;;;;5031426;28;20171;-68
2022/10/24 08:04:27;;;;;;;6.85;2.05;;;;;;;;;;5032896;28;20178;-67
2022/10/24 08:06:53;;;;;;;4.32;0.93;;;;;;;;;;5031312;28;20174;-67
2022/10/24 08:09:19;;;;;;;5.80;0.80;;;;;;;;;;5027533;28;20404;-67
2022/10/24 08:11:44;;;;;;;4.15;1.10;;;;;;;;;;5028902;28;20181;-67
2022/10/24 08:14:09;;;;;;;9.32;1.65;;;;;;;;;;5030658;28;20533;-67
2022/10/24 08:16:36;;;;;;;5.38;0.90;;;;;;;;;;5031600;28;20235;-67
2022/10/24 08:19:02;;;;;;;6.22;1.15;;;;;;;;;;5031935;28;20296;-67
2022/10/24 08:21:27;;;;;;;2.60;0.73;;;;;;;;;;5031119;28;20265;-67
2022/10/24 08:23:53;;;;;;;6.47;1.17;;;;;;;;;;5031192;28;20210;-67
2022/10/24 08:26:20;;;;;;;6.60;1.10;;;;;;;;;;5031667;28;20194;-68
2022/10/24 08:28:46;;;;;;;5.95;1.10;;;;;;;;;;5024128;28;20773;-67
2022/10/24 08:31:15;;;;;;;5.80;0.98;;;;;;;;;;5034138;28;20205;-68
2022/10/24 08:33:41;;;;;;;4.75;1.10;;;;;;;;;;5032047;28;20690;-67
2022/10/24 08:36:20;;;;;;;5.00;1.00;;;;;;;;;;5031413;28;20175;-67
2022/10/24 08:38:46;;;;;;;3.53;0.90;;;;;;;;;;5024588;28;20228;-68
2022/10/24 08:41:31;;;;;;;10.15;1.38;;;;;;;;;;5026082;28;20634;-67
2022/10/24 08:43:58;;;;;;;6.68;1.52;;;;;;;;;;5026562;28;20352;-67
2022/10/24 08:46:33;;;;;;;4.45;0.88;;;;;;;;;;5028914;28;20178;-68
2022/10/24 08:49:04;;;;;;;4.88;0.85;;;;;;;;;;5031218;28;20221;-67
2022/10/24 08:51:29;;;;;;;3.55;1.08;;;;;;;;;;5030092;28;20563;-67
2022/10/24 08:53:55;;;;;;;11.93;1.92;;;;;;;;;;5033332;28;20194;-68
2022/10/24 08:56:23;;;;;;;7.20;1.00;;;;;;;;;;5030132;28;20236;-67
2022/10/24 08:58:50;;;;;;;5.75;1.58;;;;;;;;;;5029980;28;20194;-67
2022/10/24 09:01:25;;;;;;;8.48;1.23;;;;;;;;;;5031291;28;20182;-68
2022/10/24 09:03:51;;;;;;;2.92;1.13;;;;;;;;;;5028880;28;20174;-68
2022/10/24 09:06:18;;;;;;;5.10;1.30;;;;;;;;;;5029863;28;20804;-68
2022/10/24 09:08:51;;;;;;;7.07;1.85;;;;;;;;;;5028075;28;20198;-68
2022/10/24 09:11:40;;;;;;;2.60;0.75;;;;;;;;;;5031026;28;20269;-67
2022/10/24 09:14:12;;;;;;;3.33;1.20;;;;;;;;;;5022900;28;20335;-69
2022/10/24 09:16:40;;;;;;;5.40;1.40;;;;;;;;;;5029161;28;20174;-69
2022/10/24 09:19:09;;;;;;;4.20;1.63;;;;;;;;;;5028613;28;20238;-67
2022/10/24 09:21:34;;;;;;;4.78;1.33;;;;;;;;;;5028831;28;20703;-67
2022/10/24 09:23:59;;;;;;;6.18;1.00;;;;;;;;;;5031065;28;20198;-67
2022/10/24 09:26:27;;;;;;;4.80;1.10;;;;;;;;;;5030598;28;20178;-67
2022/10/24 09:28:54;;;;;;;5.82;1.40;;;;;;;;;;5051777;22;20656;-72
2022/10/24 09:31:21;;;;;;;6.88;1.40;;;;;;;;;;5041734;28;20193;-72
2022/10/24 09:33:47;;;;;;;4.07;0.93;;;;;;;;;;5040586;28;20217;-72
2022/10/24 09:36:15;;;;;;;4.25;1.77;;;;;;;;;;5046427;28;20217;-72
2022/10/24 09:38:41;;;;;;;5.07;1.42;;;;;;;;;;5033233;28;20195;-72
2022/10/24 09:41:06;;;;;;;3.92;1.50;;;;;;;;;;5026432;28;20244;-72
2022/10/24 09:43:33;;;;;;;3.85;1.00;;;;;;;;;;5029299;28;20174;-72
2022/10/24 09:46:01;;;;;;;6.53;1.23;;;;;;;;;;5024585;28;20640;-72
2022/10/24 09:48:43;;;;;;;9.55;2.00;;;;;;;;;;5022436;28;20202;-73
2022/10/24 09:51:16;;;;;;;5.68;1.13;;;;;;;;;;5027719;28;20179;-72
2022/10/24 09:53:55;;;;;;;5.03;1.90;;;;;;;;;;5028857;28;20205;-72
2022/10/24 09:56:21;;;;;;;6.22;1.23;;;;;;;;;;5031922;28;20286;-72
2022/10/24 09:58:46;;;;;;;5.15;1.13;;;;;;;;;;5029560;28;20281;-72
2022/10/24 10:01:21;;;;;;;5.20;1.27;;;;;;;;;;5025106;28;20182;-72
2022/10/24 10:04:03;;;;;;;5.05;0.85;;;;;;;;;;5023781;28;20561;-72
2022/10/24 10:06:30;;;;;;;5.75;1.65;;;;;;;;;;5033303;28;20632;-72
2022/10/24 10:08:56;;;;;;;4.18;1.30;;;;;;;;;;5033239;28;20324;-72
2022/10/24 10:11:39;;;;;;;8.88;1.33;;;;;;;;;;5035398;28;20257;-72
2022/10/24 10:14:15;;;;;;;3.60;1.00;;;;;;;;;;5018677;28;20205;-72
2022/10/24 10:16:40;;;;;;;4.38;1.40;;;;;;;;;;5024346;28;20471;-73
2022/10/24 10:19:17;;;;;;;4.90;0.90;;;;;;;;;;5030038;28;20206;-73
2022/10/24 10:21:54;;;;;;;5.25;1.05;;;;;;;;;;5029001;28;20692;-71
2022/10/24 10:24:24;;;;;;;1.60;0.60;;;;;;;;;;5026985;28;20268;-71
2022/10/24 10:26:49;;;;;;;7.93;1.05;;;;;;;;;;5029806;28;20185;-74
2022/10/24 10:29:17;;;;;;;4.40;1.10;;;;;;;;;;5020934;28;20218;-73
2022/10/24 10:31:53;;;;;;;7.78;2.10;;;;;;;;;;5024848;28;20175;-72
2022/10/24 10:34:24;;;;;;;5.88;0.93;;;;;;;;;;5022460;28;20197;-71
2022/10/24 10:36:50;;;;;;;4.03;0.90;;;;;;;;;;5017679;28;20305;-72
2022/10/24 10:39:15;;;;;;;4.18;1.13;;;;;;;;;;5028288;28;20298;-73
2022/10/24 10:41:55;;;;;;;4.80;0.90;;;;;;;;;;5024641;28;20193;-73
2022/10/24 10:44:39;;;;;;;2.72;0.75;;;;;;;;;;5027640;28;20441;-73
2022/10/24 10:47:11;;;;;;;4.88;1.23;;;;;;;;;;5023434;28;20202;-72
2022/10/24 10:49:40;;;;;;;5.28;1.00;;;;;;;;;;5032454;28;20265;-74
2022/10/24 10:52:06;;;;;;;2.75;0.75;;;;;;;;;;5025301;28;20232;-72
2022/10/24 10:54:43;;;;;;;2.50;0.75;;;;;;;;;;5027380;28;20206;-72
2022/10/24 10:57:08;;;;;;;6.45;1.10;;;;;;;;;;5025978;28;20660;-73
2022/10/24 10:59:36;;;;;;;3.43;1.00;;;;;;;;;;5024012;28;20244;-73
2022/10/24 11:02:19;;;;;;;6.35;1.05;;;;;;;;;;5028661;28;20511;-73
2022/10/24 11:05:15;;;;;;;5.90;1.80;;;;;;;;;;5031867;28;20559;-71
2022/10/24 11:07:47;;;;;;;5.88;1.20;;;;;;;;;;5022197;28;20226;-73
2022/10/24 11:10:16;;;;;;;6.03;1.05;;;;;;;;;;5026491;28;20269;-73
2022/10/24 11:12:42;;;;;;;4.32;1.10;;;;;;;;;;5030044;28;20203;-73
2022/10/24 11:15:20;;;;;;;1.80;0.88;;;;;;;;;;5022922;28;20210;-71
2022/10/24 11:18:00;;;;;;;4.75;1.08;;;;;;;;;;5021143;28;20240;-72
2022/10/24 11:20:35;;;;;;;6.97;1.15;;;;;;;;;;5031312;28;20182;-73
2022/10/24 11:23:06;;;;;;;7.55;1.45;;;;;;;;;;5027120;28;20546;-73
2022/10/24 11:25:37;;;;;;;4.45;1.42;;;;;;;;;;5016317;28;20210;-71
2022/10/24 11:28:07;;;;;;;3.45;1.20;;;;;;;;;;5035082;28;20221;-74
2022/10/24 11:30:53;;;;;;;5.03;1.70;;;;;;;;;;5023800;28;20205;-72
2022/10/24 11:33:24;;;;;;;3.38;1.30;;;;;;;;;;5022812;28;20198;-71
2022/10/24 11:36:12;;;;;;;5.32;1.50;;;;;;;;;;5024600;28;20182;-71
2022/10/24 11:38:56;;;;;;;5.82;1.73;;;;;;;;;;5029618;28;20202;-71
2022/10/24 11:41:27;;;;;;;9.15;3.35;;;;;;;;;;5028213;28;20265;-71
2022/10/24 11:43:55;;;;;;;4.32;1.13;;;;;;;;;;5054327;28;20652;-71
2022/10/24 11:46:25;;;;;;;7.40;1.40;;;;;;;;;;5026794;28;20652;-72
2022/10/24 11:49:02;;;;;;;5.35;1.25;;;;;;;;;;5032759;28;20458;-72
2022/10/24 11:51:31;;;;;;;4.65;1.40;;;;;;;;;;5029524;28;20197;-73
2022/10/24 11:53:57;;;;;;;5.05;1.33;;;;;;;;;;5025086;28;20217;-73
2022/10/24 11:56:45;;;;;;;5.90;1.52;;;;;;;;;;5030618;28;20175;-73
2022/10/24 11:59:14;;;;;;;3.85;1.15;;;;;;;;;;5018447;28;20217;-74
2022/10/24 12:01:48;;;;;;;3.60;1.30;;;;;;;;;;5024079;28;20261;-73
2022/10/24 12:04:25;;;;;;;7.28;1.80;;;;;;;;;;5035244;28;20178;-73
2022/10/24 12:06:53;;;;;;;5.60;1.30;;;;;;;;;;5037646;28;20232;-74
2022/10/24 12:09:21;;;;;;;4.10;1.52;;;;;;;;;;5021104;28;20543;-73
2022/10/24 12:11:52;;;;;;;4.38;1.02;;;;;;;;;;5026338;28;20224;-73
2022/10/24 12:14:31;;;;;;;5.47;1.23;;;;;;;;;;5028440;28;20210;-73
2022/10/24 12:17:15;;;;;;;6.10;1.88;;;;;;;;;;5032894;28;20170;-73
2022/10/24 12:19:41;;;;;;;2.92;1.25;;;;;;;;;;5021386;28;20174;-73
2022/10/24 12:22:12;;;;;;;5.18;1.20;;;;;;;;;;5020748;28;20703;-73
2022/10/24 12:24:38;;;;;;;5.78;1.27;;;;;;;;;;5031331;28;20194;-73
2022/10/24 12:27:05;;;;;;;3.90;1.35;;;;;;;;;;5022164;28;20181;-73
2022/10/24 12:29:32;;;;;;;4.43;1.00;;;;;;;;;;5023645;28;20256;-73
2022/10/24 12:31:58;;;;;;;3.25;2.08;;;;;;;;;;5023652;28;20178;-71
2022/10/24 12:34:23;;;;;;;3.92;1.23;;;;;;;;;;5028278;28;20199;-71
2022/10/24 12:37:04;;;;;;;4.53;1.00;;;;;;;;;;5021432;28;20186;-71
2022/10/24 12:39:34;;;;;;;6.47;1.60;;;;;;;;;;5026713;28;20174;-71
2022/10/24 12:41:59;;;;;;;4.00;1.20;;;;;;;;;;5024315;28;20198;-71
2022/10/24 12:44:31;;;;;;;4.57;1.42;;;;;;;;;;5028263;28;20212;-72
2022/10/24 12:46:56;;;;;;;4.25;1.15;;;;;;;;;;5033885;28;20181;-73
2022/10/24 12:49:31;;;;;;;5.00;1.38;;;;;;;;;;5029834;28;20194;-73
2022/10/24 12:51:56;;;;;;;3.05;1.77;;;;;;;;;;5020358;28;20518;-72
2022/10/24 12:54:42;;;;;;;5.68;1.75;;;;;;;;;;5028088;28;20205;-72
2022/10/24 12:57:08;;;;;;;5.88;1.52;;;;;;;;;;5029935;28;20186;-72
2022/10/24 12:59:50;;;;;;;3.17;1.92;;;;;;;;;;5028087;28;20171;-72
2022/10/24 13:02:15;;;;;;;4.95;1.30;;;;;;;;;;5028353;28;20185;-72
2022/10/24 13:04:46;;;;;;;6.75;1.70;;;;;;;;;;5015389;28;20193;-74
2022/10/24 13:07:24;;;;;;;7.65;2.67;;;;;;;;;;5018278;28;20450;-72
2022/10/24 13:10:08;;;;;;;3.45;1.27;;;;;;;;;;5031124;28;20253;-73
2022/10/24 13:12:42;;;;;;;3.53;1.40;;;;;;;;;;5033172;28;20190;-73
2022/10/24 13:15:26;;;;;;;4.60;1.33;;;;;;;;;;5032751;28;20304;-73
2022/10/24 13:18:10;;;;;;;3.33;1.20;;;;;;;;;;5031806;28;20227;-72
2022/10/24 13:20:37;;;;;;;3.58;1.00;;;;;;;;;;5028320;28;20249;-72
2022/10/24 13:23:11;;;;;;;5.10;1.17;;;;;;;;;;5028598;28;20182;-72
2022/10/24 13:25:37;;;;;;;3.45;1.05;;;;;;;;;;5023506;28;20566;-72
2022/10/24 13:28:24;;;;;;;3.10;1.33;;;;;;;;;;5031856;28;20237;-72
2022/10/24 13:30:49;;;;;;;4.15;1.13;;;;;;;;;;5020541;28;20714;-72
2022/10/24 13:33:35;;;;;;;8.13;2.60;;;;;;;;;;5035889;28;20231;-73
2022/10/24 13:36:13;;;;;;;3.83;1.30;;;;;;;;;;5025147;28;20272;-72
2022/10/24 13:38:45;;;;;;;3.88;1.33;;;;;;;;;;5028881;28;20194;-72
2022/10/24 13:41:11;;;;;;;8.15;1.88;;;;;;;;;;5027083;28;20229;-72
2022/10/24 13:43:44;;;;;;;4.63;1.50;;;;;;;;;;5027223;28;20652;-72
2022/10/24 13:46:10;;;;;;;4.15;1.20;;;;;;;;;;5028266;28;20269;-72
2022/10/24 13:48:37;;;;;;;5.35;1.50;;;;;;;;;;5026232;28;20660;-72
2022/10/24 13:51:21;;;;;;;4.30;1.30;;;;;;;;;;5028151;28;20217;-72
2022/10/24 13:54:05;;;;;;;5.28;1.08;;;;;;;;;;5021220;28;20171;-72
2022/10/24 13:56:34;;;;;;;5.40;1.15;;;;;;;;;;5025507;28;20182;-72
2022/10/24 13:59:00;;;;;;;4.22;1.48;;;;;;;;;;5032122;28;20190;-72
2022/10/24 14:01:28;;;;;;;4.43;1.35;;;;;;;;;;5032256;28;20174;-72
2022/10/24 14:03:55;;;;;;;8.45;1.83;;;;;;;;;;5029467;28;20716;-72
2022/10/24 14:06:24;;;;;;;5.90;2.17;;;;;;;;;;5031656;28;20227;-73
2022/10/24 14:08:50;;;;;;;4.47;1.20;;;;;;;;;;5030314;28;20285;-73
2022/10/24 14:11:20;;;;;;;4.38;1.27;;;;;;;;;;5031827;28;20257;-73
2022/10/24 14:13:48;;;;;;;3.00;1.25;;;;;;;;;;5025250;28;20643;-73
2022/10/24 14:16:13;;;;;;;9.40;1.67;;;;;;;;;;5019938;28;20241;-72
2022/10/24 14:18:40;;;;;;;4.30;1.38;;;;;;;;;;5025703;28;20664;-73
2022/10/24 14:21:13;;;;;;;4.38;1.40;;;;;;;;;;5028302;28;20174;-72
2022/10/24 14:23:40;;;;;;;7.50;2.00;;;;;;;;;;5022300;28;20180;-73
2022/10/24 14:26:17;;;;;;;4.18;1.27;;;;;;;;;;5028717;28;20198;-73
2022/10/24 14:28:55;;;;;;;11.52;1.63;;;;;;;;;;5039209;28;20202;-72
2022/10/24 14:31:22;;;;;;;5.38;1.30;;;;;;;;;;5035137;28;20174;-72
2022/10/24 14:33:50;;;;;;;3.90;1.10;;;;;;;;;;5028278;28;20166;-73
2022/10/24 14:36:16;;;;;;;5.80;1.30;;;;;;;;;;5020553;28;20648;-72
2022/10/24 14:38:41;;;;;;;5.18;1.00;;;;;;;;;;5026681;28;20202;-72
2022/10/24 14:41:10;;;;;;;4.57;1.20;;;;;;;;;;5030363;28;20636;-72
2022/10/24 14:43:39;;;;;;;5.05;1.02;;;;;;;;;;5029168;28;20201;-72
2022/10/24 14:46:05;;;;;;;3.85;0.90;;;;;;;;;;5028958;28;20220;-73
2022/10/24 14:48:30;;;;;;;3.23;1.23;;;;;;;;;;5030558;28;20202;-72
2022/10/24 14:51:08;;;;;;;3.60;1.13;;;;;;;;;;5024079;28;20515;-72